Norwegian Spirit — C6TQ6 — position and weather

sailwx.info

Track history (hours):
 
Tides and Currents Weather Stations Pressure Air Temp Water Temp Dewpoint Dewpoint Depression Visibility Wind Speed Wind Dir Waves Ship Positions

Norwegian Spirit

Operator: Norwegian Cruise Line

Last reported at 2017-Jan-19 11:17 UTC. Time now 2017-Jan-19 21:23 UTC.
Position N 43°21' E 005°21'.

Type: Passenger vessel. MMSI: 311746000.

Date/timePositionNaut miles runAvg speedWind from/ knotsBaromVisibWave heightAir tempDewpointWater temp
2017-Jan-19 11:17N 43°21' E 005°21'0 0.0
2017-Jan-19 10:29N 43°21' E 005°21'0 0.0
2017-Jan-19 09:30N 43°21' E 005°21'0 0.0
2017-Jan-19 08:33N 43°21' E 005°21'0 0.0
2017-Jan-18 18:17N 43°21' E 005°21'0 0.0
2017-Jan-18 15:23N 43°21' E 005°21'0 0.0
2017-Jan-18 11:30N 43°21' E 005°21'0 0.0
2017-Jan-18 08:17N 43°21' E 005°21'0 0.0
2017-Jan-17 18:17N 43°21' E 005°21'0 0.0
2017-Jan-17 16:05N 43°21' E 005°21'0 0.0
2017-Jan-17 15:05N 43°21' E 005°21'0 0.0
2017-Jan-17 13:23N 43°21' E 005°21'0 0.0
2017-Jan-17 03:29N 43°21' E 005°21'0 0.0
2017-Jan-17 02:33N 43°21' E 005°21'1 0.8
2017-Jan-17 01:33N 43°21' E 005°20'1010.2
2017-Jan-17 00:34N 43°15' E 005°09'1514.7
2017-Jan-16 23:34N 43°06' E 004°52'1514.8
2017-Jan-16 22:33N 43°02' E 004°33'152 7.6
2017-Jan-16 02:33N 41°13' E 002°10'1615.5
2017-Jan-16 01:33N 40°59' E 002°01'1221.9
2017-Jan-16 01:00N 40°48' E 001°54'3 7.5 310 / 271021.0 12.0 8.314.0
2017-Jan-16 00:33N 40°46' E 001°50'1221.2
2017-Jan-16 00:00N 40°36' E 001°42'4 8.0 320 / 261021.0 12.0 8.315.0
2017-Jan-15 23:33N 40°33' E 001°39'1616.1
2017-Jan-15 22:33N 40°20' E 001°28'1716.7
2017-Jan-15 21:33N 40°05' E 001°16'1616.2
2017-Jan-15 20:33N 39°52' E 001°05'6415.9
2017-Jan-15 16:33N 39°26' W 000°11'7 6.6
2017-Jan-15 15:33N 39°27' W 000°19'0 0.0
2017-Jan-15 14:33N 39°27' W 000°19'0 0.0
2017-Jan-15 13:33N 39°27' W 000°19'0 0.0
2017-Jan-15 12:33N 39°27' W 000°19'0 0.0
2017-Jan-15 11:33N 39°27' W 000°19'0 0.0
2017-Jan-15 10:33N 39°27' W 000°19'0 0.0
2017-Jan-15 09:33N 39°27' W 000°19'0 0.0
2017-Jan-15 08:33N 39°27' W 000°19'0 0.0
2017-Jan-15 07:33N 39°27' W 000°19'0 0.1
2017-Jan-15 06:33N 39°27' W 000°19'7 6.7
2017-Jan-15 05:33N 39°24' W 000°11'5111.2
2017-Jan-15 01:00N 39°18' E 000°54'918.3 350 / 261024.0 12.0 8.315.0
2017-Jan-15 00:29N 39°23' E 001°04'611.6
2017-Jan-15 00:00N 39°18' E 001°06'2215.6 350 / 301024.0 12.0 8.315.0
2017-Jan-14 22:33N 39°23' E 001°34'1212.0
2017-Jan-14 21:33N 39°23' E 001°50'1212.1
2017-Jan-14 20:33N 39°23' E 002°06'1212.3
2017-Jan-14 19:33N 39°23' E 002°21'1211.6
2017-Jan-14 18:33N 39°26' E 002°36'7 7.1
2017-Jan-14 17:33N 39°33' E 002°38'0 0.0
2017-Jan-14 16:33N 39°33' E 002°38'0 0.0
2017-Jan-14 15:33N 39°33' E 002°38'0 0.0
2017-Jan-14 14:33N 39°33' E 002°38'0 0.0
2017-Jan-14 13:33N 39°33' E 002°38'0 0.0
2017-Jan-14 12:33N 39°33' E 002°38'0 0.0
2017-Jan-14 11:33N 39°33' E 002°38'0 0.0
2017-Jan-14 10:33N 39°33' E 002°38'0 0.0
2017-Jan-14 09:33N 39°33' E 002°38'0 0.0
2017-Jan-14 08:33N 39°33' E 002°38'0 0.0
2017-Jan-14 07:33N 39°33' E 002°38'0 0.0
2017-Jan-14 06:33N 39°33' E 002°38'0 0.0
2017-Jan-14 05:33N 39°33' E 002°38'0 0.0
2017-Jan-14 04:33N 39°33' E 002°38'0 0.0
2017-Jan-14 03:33N 39°33' E 002°38'0 0.0
2017-Jan-13 23:33N 39°33' E 002°38'0 0.0
2017-Jan-13 22:33N 39°33' E 002°38'0 0.0
2017-Jan-13 21:33N 39°33' E 002°38'0 0.0
2017-Jan-13 20:33N 39°33' E 002°38'0 0.0
2017-Jan-13 19:33N 39°33' E 002°38'0 0.0
2017-Jan-13 18:33N 39°33' E 002°38'0 0.0
2017-Jan-13 17:33N 39°33' E 002°38'0 0.0
2017-Jan-13 16:33N 39°33' E 002°38'2 1.7
2017-Jan-13 15:33N 39°32' E 002°39'1414.1
2017-Jan-13 14:34N 39°18' E 002°44'1515.4
2017-Jan-13 13:34N 39°04' E 002°52'813.5
2017-Jan-13 13:00N 39°00' E 003°00'1226.3 330 / 201016.0 16.012.616.0
2017-Jan-13 12:33N 39°09' E 003°09'4 6.5
2017-Jan-13 12:00N 39°12' E 003°12'1228.6 310 / 271015.0 16.012.616.0
2017-Jan-13 11:34N 39°22' E 003°22'1816.2
2017-Jan-13 10:28N 39°37' E 003°33'1516.2
2017-Jan-13 09:33N 39°51' E 003°38'12216.1
2017-Jan-13 02:00N 41°30' E 005°12'4522.5 260 / 151014.0 14.010.515.0
2017-Jan-13 00:00N 42°06' E 005°48'8221.2 270 / 231013.0 14.010.515.0
2017-Jan-12 20:08N 43°08' E 007°01'1220.8
2017-Jan-12 19:33N 43°19' E 007°08'1818.1
2017-Jan-12 18:33N 43°35' E 007°20'11 0.8
2017-Jan-12 05:33N 43°42' E 007°32'1211.9
2017-Jan-12 04:33N 43°39' E 007°48'1212.4
2017-Jan-12 03:33N 43°36' E 008°05'1312.7
2017-Jan-12 02:33N 43°33' E 008°22'1212.2
2017-Jan-12 01:33N 43°31' E 008°38'610.6
2017-Jan-12 01:00N 43°30' E 008°30'1841.8 190 / 141017.0 12.0 8.315.0
2017-Jan-12 00:33N 43°28' E 008°55'6 9.7
2017-Jan-12 00:00N 43°24' E 009°00'921.6 220 / 251018.0 12.0 8.316.0
2017-Jan-11 23:33N 43°25' E 009°13'1312.7
2017-Jan-11 22:33N 43°23' E 009°30'1212.4
2017-Jan-11 21:33N 43°20' E 009°47'1111.0
2017-Jan-11 20:33N 43°22' E 010°01'1212.2
2017-Jan-11 19:33N 43°31' E 010°13'4 4.2
2017-Jan-11 18:33N 43°33' E 010°18'0 0.0
2017-Jan-11 17:33N 43°33' E 010°18'0 0.0
2017-Jan-11 16:30N 43°33' E 010°18'0 0.0
2017-Jan-11 15:30N 43°33' E 010°18'0 0.0
2017-Jan-11 14:33N 43°33' E 010°18'0 0.0
2017-Jan-11 13:33N 43°33' E 010°18'0 0.0
2017-Jan-11 12:33N 43°33' E 010°18'0 0.0
2017-Jan-11 11:33N 43°33' E 010°18'0 0.0
2017-Jan-11 10:33N 43°33' E 010°18'0 0.0
2017-Jan-11 09:33N 43°33' E 010°18'0 0.0
2017-Jan-11 08:33N 43°33' E 010°18'0 0.0
2017-Jan-11 07:33N 43°33' E 010°18'0 0.0
2017-Jan-11 06:33N 43°33' E 010°18'0 0.1
2017-Jan-11 05:33N 43°33' E 010°18'7 7.0
2017-Jan-11 04:33N 43°28' E 010°12'1716.8
2017-Jan-11 03:33N 43°12' E 010°06'3119.8
2017-Jan-11 02:00N 42°42' E 009°54'1818.0 060 / 151015.0 6.0 1.415.0
2017-Jan-11 01:00N 42°24' E 009°54'1212.0 080 / 291014.0 8.0 3.815.0
2017-Jan-11 00:00N 42°12' E 009°54'137 5.9 070 / 271012.0 8.0 3.815.0
2017-Jan-10 01:00N 40°48' E 012°18'2020.2 350 / 141016.0 15.0 9.616.0
2017-Jan-10 00:00N 40°30' E 012°30'10619.5 350 / 121016.0 15.011.616.0
2017-Jan-09 18:33N 38°53' E 013°25'2020.1
2017-Jan-09 17:33N 38°33' E 013°28'2020.4
2017-Jan-09 16:33N 38°13' E 013°26'6 5.9
2017-Jan-09 15:33N 38°08' E 013°22'0 0.0
2017-Jan-09 14:33N 38°08' E 013°22'0 0.0
2017-Jan-09 13:33N 38°08' E 013°22'0 0.0
2017-Jan-09 12:33N 38°08' E 013°22'0 0.0
2017-Jan-09 11:33N 38°08' E 013°22'  
Track history (hours):
 
Tides and Currents Weather Stations Pressure Air Temp Water Temp Dewpoint Dewpoint Depression Visibility Wind Speed Wind Dir Waves Ship Positions

Norwegian Spirit

Operator: Norwegian Cruise Line

Last reported at 2017-Jan-19 11:17 UTC. Time now 2017-Jan-19 21:23 UTC.
Position N 43°21' E 005°21'.

Type: Passenger vessel. MMSI: 311746000.

Date/timePositionNaut miles runAvg speedWind from/ knotsBaromVisibWave heightAir tempDewpointWater temp
2017-Jan-19 11:17N 43°21' E 005°21'0 0.0
2017-Jan-19 10:29N 43°21' E 005°21'0 0.0
2017-Jan-19 09:30N 43°21' E 005°21'0 0.0
2017-Jan-19 08:33N 43°21' E 005°21'0 0.0
2017-Jan-18 18:17N 43°21' E 005°21'0 0.0
2017-Jan-18 15:23N 43°21' E 005°21'0 0.0
2017-Jan-18 11:30N 43°21' E 005°21'0 0.0
2017-Jan-18 08:17N 43°21' E 005°21'0 0.0
2017-Jan-17 18:17N 43°21' E 005°21'0 0.0
2017-Jan-17 16:05N 43°21' E 005°21'0 0.0
2017-Jan-17 15:05N 43°21' E 005°21'0 0.0
2017-Jan-17 13:23N 43°21' E 005°21'0 0.0
2017-Jan-17 03:29N 43°21' E 005°21'0 0.0
2017-Jan-17 02:33N 43°21' E 005°21'1 0.8
2017-Jan-17 01:33N 43°21' E 005°20'1010.2
2017-Jan-17 00:34N 43°15' E 005°09'1514.7
2017-Jan-16 23:34N 43°06' E 004°52'1514.8
2017-Jan-16 22:33N 43°02' E 004°33'152 7.6
2017-Jan-16 02:33N 41°13' E 002°10'1615.5
2017-Jan-16 01:33N 40°59' E 002°01'1221.9
2017-Jan-16 01:00N 40°48' E 001°54'3 7.5 310 / 271021.0 12.0 8.314.0
2017-Jan-16 00:33N 40°46' E 001°50'1221.2
2017-Jan-16 00:00N 40°36' E 001°42'4 8.0 320 / 261021.0 12.0 8.315.0
2017-Jan-15 23:33N 40°33' E 001°39'1616.1
2017-Jan-15 22:33N 40°20' E 001°28'1716.7
2017-Jan-15 21:33N 40°05' E 001°16'1616.2
2017-Jan-15 20:33N 39°52' E 001°05'6415.9
2017-Jan-15 16:33N 39°26' W 000°11'7 6.6
2017-Jan-15 15:33N 39°27' W 000°19'0 0.0
2017-Jan-15 14:33N 39°27' W 000°19'0 0.0
2017-Jan-15 13:33N 39°27' W 000°19'0 0.0
2017-Jan-15 12:33N 39°27' W 000°19'0 0.0
2017-Jan-15 11:33N 39°27' W 000°19'0 0.0
2017-Jan-15 10:33N 39°27' W 000°19'0 0.0
2017-Jan-15 09:33N 39°27' W 000°19'0 0.0
2017-Jan-15 08:33N 39°27' W 000°19'0 0.0
2017-Jan-15 07:33N 39°27' W 000°19'0 0.1
2017-Jan-15 06:33N 39°27' W 000°19'7 6.7
2017-Jan-15 05:33N 39°24' W 000°11'5111.2
2017-Jan-15 01:00N 39°18' E 000°54'918.3 350 / 261024.0 12.0 8.315.0
2017-Jan-15 00:29N 39°23' E 001°04'611.6
2017-Jan-15 00:00N 39°18' E 001°06'2215.6 350 / 301024.0 12.0 8.315.0
2017-Jan-14 22:33N 39°23' E 001°34'1212.0
2017-Jan-14 21:33N 39°23' E 001°50'1212.1
2017-Jan-14 20:33N 39°23' E 002°06'1212.3
2017-Jan-14 19:33N 39°23' E 002°21'1211.6
2017-Jan-14 18:33N 39°26' E 002°36'7 7.1
2017-Jan-14 17:33N 39°33' E 002°38'0 0.0
2017-Jan-14 16:33N 39°33' E 002°38'0 0.0
2017-Jan-14 15:33N 39°33' E 002°38'0 0.0
2017-Jan-14 14:33N 39°33' E 002°38'0 0.0
2017-Jan-14 13:33N 39°33' E 002°38'0 0.0
2017-Jan-14 12:33N 39°33' E 002°38'0 0.0
2017-Jan-14 11:33N 39°33' E 002°38'0 0.0
2017-Jan-14 10:33N 39°33' E 002°38'0 0.0
2017-Jan-14 09:33N 39°33' E 002°38'0 0.0
2017-Jan-14 08:33N 39°33' E 002°38'0 0.0
2017-Jan-14 07:33N 39°33' E 002°38'0 0.0
2017-Jan-14 06:33N 39°33' E 002°38'0 0.0
2017-Jan-14 05:33N 39°33' E 002°38'0 0.0
2017-Jan-14 04:33N 39°33' E 002°38'0 0.0
2017-Jan-14 03:33N 39°33' E 002°38'0 0.0
2017-Jan-13 23:33N 39°33' E 002°38'0 0.0
2017-Jan-13 22:33N 39°33' E 002°38'0 0.0
2017-Jan-13 21:33N 39°33' E 002°38'0 0.0
2017-Jan-13 20:33N 39°33' E 002°38'0 0.0
2017-Jan-13 19:33N 39°33' E 002°38'0 0.0
2017-Jan-13 18:33N 39°33' E 002°38'0 0.0
2017-Jan-13 17:33N 39°33' E 002°38'0 0.0
2017-Jan-13 16:33N 39°33' E 002°38'2 1.7
2017-Jan-13 15:33N 39°32' E 002°39'1414.1
2017-Jan-13 14:34N 39°18' E 002°44'1515.4
2017-Jan-13 13:34N 39°04' E 002°52'813.5
2017-Jan-13 13:00N 39°00' E 003°00'1226.3 330 / 201016.0 16.012.616.0
2017-Jan-13 12:33N 39°09' E 003°09'4 6.5
2017-Jan-13 12:00N 39°12' E 003°12'1228.6 310 / 271015.0 16.012.616.0
2017-Jan-13 11:34N 39°22' E 003°22'1816.2
2017-Jan-13 10:28N 39°37' E 003°33'1516.2
2017-Jan-13 09:33N 39°51' E 003°38'12216.1
2017-Jan-13 02:00N 41°30' E 005°12'4522.5 260 / 151014.0 14.010.515.0
2017-Jan-13 00:00N 42°06' E 005°48'8221.2 270 / 231013.0 14.010.515.0
2017-Jan-12 20:08N 43°08' E 007°01'1220.8
2017-Jan-12 19:33N 43°19' E 007°08'1818.1
2017-Jan-12 18:33N 43°35' E 007°20'11 0.8
2017-Jan-12 05:33N 43°42' E 007°32'1211.9
2017-Jan-12 04:33N 43°39' E 007°48'1212.4
2017-Jan-12 03:33N 43°36' E 008°05'1312.7
2017-Jan-12 02:33N 43°33' E 008°22'1212.2
2017-Jan-12 01:33N 43°31' E 008°38'610.6
2017-Jan-12 01:00N 43°30' E 008°30'1841.8 190 / 141017.0 12.0 8.315.0
2017-Jan-12 00:33N 43°28' E 008°55'6 9.7
2017-Jan-12 00:00N 43°24' E 009°00'921.6 220 / 251018.0 12.0 8.316.0
2017-Jan-11 23:33N 43°25' E 009°13'1312.7
2017-Jan-11 22:33N 43°23' E 009°30'1212.4
2017-Jan-11 21:33N 43°20' E 009°47'1111.0
2017-Jan-11 20:33N 43°22' E 010°01'1212.2
2017-Jan-11 19:33N 43°31' E 010°13'4 4.2
2017-Jan-11 18:33N 43°33' E 010°18'0 0.0
2017-Jan-11 17:33N 43°33' E 010°18'0 0.0
2017-Jan-11 16:30N 43°33' E 010°18'0 0.0
2017-Jan-11 15:30N 43°33' E 010°18'0 0.0
2017-Jan-11 14:33N 43°33' E 010°18'0 0.0
2017-Jan-11 13:33N 43°33' E 010°18'0 0.0
2017-Jan-11 12:33N 43°33' E 010°18'0 0.0
2017-Jan-11 11:33N 43°33' E 010°18'0 0.0
2017-Jan-11 10:33N 43°33' E 010°18'0 0.0
2017-Jan-11 09:33N 43°33' E 010°18'0 0.0
2017-Jan-11 08:33N 43°33' E 010°18'0 0.0
2017-Jan-11 07:33N 43°33' E 010°18'0 0.0
2017-Jan-11 06:33N 43°33' E 010°18'0 0.1
2017-Jan-11 05:33N 43°33' E 010°18'7 7.0
2017-Jan-11 04:33N 43°28' E 010°12'1716.8
2017-Jan-11 03:33N 43°12' E 010°06'3119.8
2017-Jan-11 02:00N 42°42' E 009°54'1818.0 060 / 151015.0 6.0 1.415.0
2017-Jan-11 01:00N 42°24' E 009°54'1212.0 080 / 291014.0 8.0 3.815.0
2017-Jan-11 00:00N 42°12' E 009°54'137 5.9 070 / 271012.0 8.0 3.815.0
2017-Jan-10 01:00N 40°48' E 012°18'2020.2 350 / 141016.0 15.0 9.616.0
2017-Jan-10 00:00N 40°30' E 012°30'10619.5 350 / 121016.0 15.011.616.0
2017-Jan-09 18:33N 38°53' E 013°25'2020.1
2017-Jan-09 17:33N 38°33' E 013°28'2020.4
2017-Jan-09 16:33N 38°13' E 013°26'6 5.9
2017-Jan-09 15:33N 38°08' E 013°22'0 0.0
2017-Jan-09 14:33N 38°08' E 013°22'0 0.0
2017-Jan-09 13:33N 38°08' E 013°22'0 0.0
2017-Jan-09 12:33N 38°08' E 013°22'0 0.0
2017-Jan-09 11:33N 38°08' E 013°22'  

Dump ship's entire track history